Time;durP1;ratioP1;P1;durP2;ratioP2;P2;SDS_P1;SDS_P2;PMS_P1;PMS_P2;Temp;Humidity;BMP_temperature;BMP_pressure;BME280_temperature;BME280_humidity;BME280_pressure;Samples;Min_cycle;Max_cycle;Signal;HPM_P1;HPM_P2
2020/12/26 00:01:12;;;;;;;12.18;3.88;;;2.70;93.50;;;;;;4994184;28;20035;-50
2020/12/26 00:03:38;;;;;;;8.40;3.50;;;2.70;93.60;;;;;;5002103;28;20462;-50
2020/12/26 00:06:05;;;;;;;11.02;3.70;;;2.70;93.50;;;;;;4994756;28;20438;-49
2020/12/26 00:08:32;;;;;;;9.52;3.72;;;2.70;93.50;;;;;;5012004;28;20050;-48
2020/12/26 00:10:59;;;;;;;10.70;3.65;;;2.70;93.50;;;;;;4996107;28;20058;-50
2020/12/26 00:13:29;;;;;;;12.02;3.70;;;2.70;93.40;;;;;;4974703;28;20046;-48
2020/12/26 00:15:55;;;;;;;11.23;4.22;;;2.70;93.50;;;;;;4987223;28;20518;-48
2020/12/26 00:18:21;;;;;;;9.05;3.50;;;2.60;93.50;;;;;;4973951;28;20400;-48
2020/12/26 00:20:47;;;;;;;8.75;3.60;;;2.70;93.50;;;;;;4994081;28;20046;-51
2020/12/26 00:23:14;;;;;;;11.05;3.88;;;2.70;93.60;;;;;;4981734;28;20057;-48
2020/12/26 00:25:41;;;;;;;13.27;3.45;;;2.70;93.60;;;;;;4991650;28;20121;-48
2020/12/26 00:28:09;;;;;;;15.25;3.90;;;2.70;93.60;;;;;;4984438;28;20057;-50
2020/12/26 00:30:35;;;;;;;7.63;3.20;;;2.70;93.50;;;;;;4989898;28;20058;-49
2020/12/26 00:33:02;;;;;;;9.13;3.30;;;2.70;93.50;;;;;;4993995;28;20070;-49
2020/12/26 00:35:29;;;;;;;13.63;3.25;;;2.80;93.50;;;;;;4992511;28;20427;-49
2020/12/26 00:37:54;;;;;;;11.43;3.33;;;2.80;93.40;;;;;;4987360;28;20070;-49
2020/12/26 00:40:21;;;;;;;9.35;3.50;;;2.80;93.40;;;;;;4984825;28;20046;-48
2020/12/26 00:42:47;;;;;;;10.82;3.60;;;2.80;93.40;;;;;;4993372;28;20426;-48
2020/12/26 00:45:13;;;;;;;9.43;3.80;;;2.80;93.40;;;;;;4993814;28;20101;-48
2020/12/26 00:47:39;;;;;;;8.02;3.15;;;2.80;93.40;;;;;;4993232;28;20050;-48
2020/12/26 00:50:05;;;;;;;13.40;3.53;;;2.80;93.40;;;;;;4993980;28;20046;-49
2020/12/26 00:52:32;;;;;;;11.95;4.00;;;2.80;93.40;;;;;;4989808;28;20415;-47
2020/12/26 00:54:59;;;;;;;8.98;3.45;;;2.80;93.40;;;;;;4993994;28;20119;-48
2020/12/26 00:57:25;;;;;;;8.18;3.40;;;2.80;93.40;;;;;;4991902;28;20038;-48
2020/12/26 00:59:50;;;;;;;10.32;3.58;;;2.80;93.40;;;;;;5001517;28;20057;-47
2020/12/26 01:02:17;;;;;;;14.70;3.78;;;2.80;93.50;;;;;;4992684;28;20042;-48
2020/12/26 01:04:43;;;;;;;7.78;3.55;;;2.80;93.40;;;;;;4993579;28;20046;-47
2020/12/26 01:07:09;;;;;;;13.93;4.18;;;2.80;93.60;;;;;;4991322;28;20042;-49
2020/12/26 01:09:34;;;;;;;14.25;4.57;;;2.80;93.60;;;;;;4985085;28;20471;-48
2020/12/26 01:12:00;;;;;;;13.73;5.22;;;2.80;93.50;;;;;;4994680;28;20046;-49
2020/12/26 01:14:26;;;;;;;9.90;4.40;;;2.90;93.60;;;;;;4992818;28;20041;-51
2020/12/26 01:16:52;;;;;;;11.93;5.18;;;2.90;93.50;;;;;;4994748;28;20395;-47
2020/12/26 01:19:18;;;;;;;11.55;4.65;;;2.90;93.50;;;;;;4993657;28;20202;-47
2020/12/26 01:21:51;;;;;;;10.63;4.90;;;2.90;93.50;;;;;;4993353;28;20097;-49
2020/12/26 01:24:17;;;;;;;;;;;2.90;93.40;;;;;;4983619;28;20034;-48
2020/12/26 01:26:46;;;;;;;12.77;4.93;;;2.90;93.50;;;;;;4989334;28;19928;-50
2020/12/26 01:29:12;;;;;;;10.63;5.20;;;3.00;93.40;;;;;;4992109;28;20050;-49
2020/12/26 01:31:39;;;;;;;10.27;5.75;;;2.90;93.50;;;;;;4991918;28;20054;-49
2020/12/26 01:34:06;;;;;;;13.75;6.00;;;2.90;93.50;;;;;;5008942;28;20057;-48
2020/12/26 01:36:31;;;;;;;13.43;5.80;;;2.90;93.40;;;;;;4993913;28;20430;-47
2020/12/26 01:38:57;;;;;;;13.55;5.88;;;2.90;93.50;;;;;;4993591;28;20046;-48
2020/12/26 01:41:23;;;;;;;15.00;5.95;;;3.00;93.50;;;;;;4994191;28;20045;-50
2020/12/26 01:44:04;;;;;;;14.45;6.40;;;3.00;93.50;;;;;;4992498;28;20116;-48
2020/12/26 01:46:31;;;;;;;11.85;6.18;;;3.00;93.50;;;;;;4993924;28;20403;-48
2020/12/26 01:49:01;;;;;;;18.75;6.88;;;3.00;93.50;;;;;;4992437;28;20057;-49
2020/12/26 01:51:31;;;;;;;13.38;6.47;;;3.00;93.40;;;;;;4991878;28;20060;-49
2020/12/26 01:54:00;;;;;;;16.90;7.30;;;3.00;93.40;;;;;;4991230;28;20152;-49
2020/12/26 01:56:26;;;;;;;16.75;7.20;;;3.10;93.50;;;;;;4981346;28;20062;-48
2020/12/26 01:58:53;;;;;;;12.93;6.72;;;3.10;93.50;;;;;;4992262;28;20411;-51
2020/12/26 02:01:41;;;;;;;13.25;6.85;;;3.10;93.50;;;;;;4993687;28;20034;-49
2020/12/26 02:04:09;;;;;;;15.73;7.43;;;3.10;93.40;;;;;;4993023;28;20046;-47
2020/12/26 02:06:43;;;;;;;13.40;6.70;;;3.10;93.40;;;;;;4993346;28;20478;-48
2020/12/26 02:09:11;;;;;;;13.60;6.63;;;3.10;93.30;;;;;;4993773;28;20064;-49
2020/12/26 02:11:37;;;;;;;16.50;7.53;;;3.10;93.40;;;;;;4993446;28;20125;-48
2020/12/26 02:14:03;;;;;;;13.23;7.05;;;3.20;93.40;;;;;;4992803;28;20112;-48
2020/12/26 02:16:29;;;;;;;15.02;6.90;;;3.20;93.30;;;;;;4992968;28;20046;-48
2020/12/26 02:18:55;;;;;;;17.50;7.63;;;3.20;93.20;;;;;;4991872;28;20097;-49
2020/12/26 02:21:26;;;;;;;14.43;7.47;;;3.20;93.20;;;;;;4991676;28;20076;-49
2020/12/26 02:23:52;;;;;;;17.00;7.65;;;3.20;93.30;;;;;;4984508;28;20502;-47
2020/12/26 02:26:28;;;;;;;14.77;7.40;;;3.20;93.30;;;;;;4987154;28;20049;-49
2020/12/26 02:28:56;;;;;;;12.73;6.40;;;3.30;93.30;;;;;;4991528;28;20480;-48
2020/12/26 02:31:23;;;;;;;17.00;7.68;;;3.30;93.20;;;;;;4993101;28;20108;-49
2020/12/26 02:33:49;;;;;;;18.45;7.07;;;3.30;93.20;;;;;;4991807;28;20030;-49
2020/12/26 02:36:15;;;;;;;12.73;7.03;;;3.30;93.30;;;;;;4993666;28;20099;-48
2020/12/26 02:38:41;;;;;;;16.95;7.43;;;3.30;93.20;;;;;;4991934;28;20050;-48
2020/12/26 02:41:08;;;;;;;16.25;7.07;;;3.40;93.30;;;;;;4975065;28;20089;-48
2020/12/26 02:43:34;;;;;;;13.15;6.47;;;3.40;93.30;;;;;;4977936;28;20179;-48
2020/12/26 02:46:02;;;;;;;15.15;6.97;;;3.40;93.40;;;;;;4992977;28;20067;-48
2020/12/26 02:48:32;;;;;;;16.38;7.22;;;3.40;93.40;;;;;;4991827;28;20499;-48
2020/12/26 02:50:58;;;;;;;13.43;7.25;;;3.40;93.40;;;;;;4973005;28;20046;-50
2020/12/26 02:53:25;;;;;;;12.25;7.40;;;3.50;93.40;;;;;;4992363;28;20069;-51
2020/12/26 02:55:52;;;;;;;16.40;7.65;;;3.40;93.50;;;;;;4985259;28;20153;-48
2020/12/26 02:58:21;;;;;;;17.05;7.30;;;3.50;93.40;;;;;;4998457;28;20410;-50
2020/12/26 03:00:49;;;;;;;16.70;7.53;;;3.50;93.30;;;;;;5005181;28;20073;-48
2020/12/26 03:03:15;;;;;;;14.65;7.78;;;3.50;93.40;;;;;;5000010;28;20049;-47
2020/12/26 03:05:40;;;;;;;14.35;7.28;;;3.50;93.50;;;;;;4996480;28;20030;-50
2020/12/26 03:08:07;;;;;;;17.33;7.93;;;3.50;93.40;;;;;;4999417;28;20447;-51
2020/12/26 03:10:32;;;;;;;15.48;7.78;;;3.50;93.30;;;;;;4999274;28;20507;-48
2020/12/26 03:12:58;;;;;;;15.20;7.57;;;3.50;93.30;;;;;;4997605;28;20053;-49
2020/12/26 03:15:26;;;;;;;17.48;8.00;;;3.50;93.20;;;;;;4975006;28;20050;-52
2020/12/26 03:17:52;;;;;;;12.60;7.28;;;3.50;93.30;;;;;;4994379;28;20061;-48
2020/12/26 03:20:18;;;;;;;13.75;7.40;;;3.50;93.20;;;;;;4990466;28;20491;-48
2020/12/26 03:22:45;;;;;;;15.40;7.55;;;3.50;93.30;;;;;;4997522;28;20054;-48
2020/12/26 03:25:11;;;;;;;15.65;7.78;;;3.40;93.20;;;;;;4996874;28;20103;-48
2020/12/26 03:27:37;;;;;;;17.55;7.97;;;3.40;93.30;;;;;;4987239;28;20038;-48
2020/12/26 03:30:04;;;;;;;17.85;7.53;;;3.40;93.30;;;;;;4989254;28;20057;-49
2020/12/26 03:32:33;;;;;;;13.90;7.07;;;3.40;93.40;;;;;;4963220;28;20050;-48
2020/12/26 03:34:59;;;;;;;15.23;7.13;;;3.40;93.40;;;;;;5004090;28;20490;-49
2020/12/26 03:37:25;;;;;;;12.15;7.55;;;3.30;93.40;;;;;;5000336;28;20128;-49
2020/12/26 03:39:51;;;;;;;13.65;7.28;;;3.30;93.40;;;;;;4997280;28;20126;-47
2020/12/26 03:42:16;;;;;;;14.98;7.60;;;3.30;93.50;;;;;;4997117;28;20120;-48
2020/12/26 03:44:42;;;;;;;17.75;7.65;;;3.30;93.50;;;;;;4992791;28;20039;-51
2020/12/26 03:47:10;;;;;;;13.57;7.20;;;3.30;93.50;;;;;;4977063;28;20082;-51
2020/12/26 03:49:36;;;;;;;16.05;7.28;;;3.30;93.50;;;;;;4988511;28;20070;-49
2020/12/26 03:52:02;;;;;;;15.30;7.82;;;3.30;93.50;;;;;;4991820;28;20057;-51
2020/12/26 03:54:28;;;;;;;14.50;7.63;;;3.30;93.60;;;;;;5008806;28;20042;-48
2020/12/26 03:56:55;;;;;;;14.63;7.60;;;3.30;93.50;;;;;;4988487;28;20070;-50
2020/12/26 03:59:21;;;;;;;13.48;7.18;;;3.30;93.50;;;;;;4993074;28;20050;-48
2020/12/26 04:01:47;;;;;;;15.27;7.18;;;3.40;93.80;;;;;;4989389;28;20046;-53
2020/12/26 04:04:16;;;;;;;14.32;7.13;;;3.40;93.50;;;;;;4991204;28;20069;-48
2020/12/26 04:06:42;;;;;;;12.43;6.50;;;3.30;93.50;;;;;;4990832;28;20118;-48
2020/12/26 04:09:09;;;;;;;13.48;6.95;;;3.30;93.50;;;;;;4983934;28;20047;-49
2020/12/26 04:11:35;;;;;;;13.77;6.30;;;3.30;93.50;;;;;;4989407;28;20050;-47
2020/12/26 04:14:02;;;;;;;15.52;6.82;;;3.30;93.50;;;;;;4993653;28;20050;-48
2020/12/26 04:16:29;;;;;;;10.88;6.18;;;3.20;93.50;;;;;;4990622;28;20058;-48
2020/12/26 04:18:57;;;;;;;12.07;6.72;;;3.20;93.60;;;;;;4990062;28;20426;-49
2020/12/26 04:21:23;;;;;;;11.48;5.78;;;3.20;93.60;;;;;;4983487;28;20061;-50
2020/12/26 04:23:52;;;;;;;15.35;6.20;;;3.10;93.70;;;;;;4995001;28;20096;-48
2020/12/26 04:26:18;;;;;;;12.30;6.35;;;3.10;93.60;;;;;;4993746;28;20055;-48
2020/12/26 04:28:45;;;;;;;13.30;5.60;;;3.10;93.60;;;;;;4975628;28;20050;-48
2020/12/26 04:31:11;;;;;;;11.95;5.50;;;3.00;93.90;;;;;;4996485;28;20030;-48
2020/12/26 04:33:37;;;;;;;7.60;5.32;;;3.00;93.70;;;;;;4993423;28;20058;-50
2020/12/26 04:36:03;;;;;;;12.50;5.97;;;3.00;93.70;;;;;;4992347;28;20042;-47
2020/12/26 04:38:29;;;;;;;10.50;5.70;;;3.00;93.70;;;;;;4998935;28;20121;-49
2020/12/26 04:40:56;;;;;;;11.05;5.13;;;3.00;93.80;;;;;;4999133;28;20124;-52
2020/12/26 04:43:22;;;;;;;9.93;5.53;;;3.00;93.70;;;;;;4991255;28;20077;-48
2020/12/26 04:45:52;;;;;;;16.02;5.35;;;3.00;93.60;;;;;;4997018;28;20042;-49
2020/12/26 04:48:23;;;;;;;10.55;5.53;;;3.00;93.60;;;;;;4985808;28;20089;-49
2020/12/26 04:50:50;;;;;;;12.02;5.28;;;3.00;93.50;;;;;;4987833;28;20096;-48
2020/12/26 04:53:17;;;;;;;13.95;5.53;;;2.90;93.60;;;;;;4989292;28;20108;-48
2020/12/26 04:55:49;;;;;;;12.00;5.30;;;2.90;93.60;;;;;;4990106;28;20046;-49
2020/12/26 04:58:16;;;;;;;12.25;5.30;;;2.90;93.70;;;;;;4983780;28;20472;-48
2020/12/26 05:00:43;;;;;;;10.55;5.20;;;2.90;93.80;;;;;;4988975;28;20442;-48
2020/12/26 05:03:14;;;;;;;13.93;5.25;;;2.90;93.80;;;;;;4993341;28;20038;-47
2020/12/26 05:05:43;;;;;;;14.32;5.95;;;2.90;93.80;;;;;;5007747;28;20046;-48
2020/12/26 05:08:14;;;;;;;15.05;6.13;;;2.80;93.90;;;;;;4985515;28;20041;-47
2020/12/26 05:10:41;;;;;;;10.73;6.15;;;2.80;93.90;;;;;;4993029;28;20113;-50
2020/12/26 05:13:12;;;;;;;12.48;6.80;;;2.80;93.80;;;;;;4994701;28;20093;-49
2020/12/26 05:15:39;;;;;;;15.00;7.43;;;2.80;93.90;;;;;;4993679;28;20139;-50
2020/12/26 05:18:05;;;;;;;16.13;6.47;;;2.80;93.90;;;;;;4992291;28;20047;-47
2020/12/26 05:20:32;;;;;;;13.02;7.32;;;2.70;94.00;;;;;;4997153;28;20101;-49
2020/12/26 05:23:16;;;;;;;15.60;6.80;;;2.70;94.00;;;;;;4996149;28;20046;-47
2020/12/26 05:25:50;;;;;;;;;;;2.70;94.10;;;;;;4997096;28;20181;-48
2020/12/26 05:28:19;;;;;;;14.57;7.18;;;2.70;93.90;;;;;;4982684;28;20009;-48
2020/12/26 05:30:48;;;;;;;16.33;7.45;;;2.70;93.90;;;;;;4997223;28;20050;-51
2020/12/26 05:33:15;;;;;;;14.05;7.32;;;2.70;94.00;;;;;;4998484;28;20068;-50
2020/12/26 05:35:42;;;;;;;18.13;8.07;;;2.60;94.00;;;;;;4997411;28;20069;-48
2020/12/26 05:38:18;;;;;;;19.08;7.85;;;2.60;94.00;;;;;;4987847;28;20046;-47
2020/12/26 05:40:54;;;;;;;13.57;8.38;;;2.70;94.10;;;;;;4994620;28;20045;-48
2020/12/26 05:43:22;;;;;;;17.73;8.50;;;2.60;94.40;;;;;;4986393;28;20046;-50
2020/12/26 05:45:49;;;;;;;18.67;8.68;;;2.70;94.20;;;;;;4993184;28;20042;-47
2020/12/26 05:48:18;;;;;;;15.48;8.57;;;2.70;94.20;;;;;;4996257;28;20038;-49
2020/12/26 05:50:45;;;;;;;15.68;8.63;;;2.80;94.30;;;;;;4972335;28;20058;-47
2020/12/26 05:53:16;;;;;;;15.40;9.23;;;2.70;94.10;;;;;;4992713;28;20038;-47
2020/12/26 05:55:44;;;;;;;19.25;9.70;;;2.80;94.20;;;;;;4996169;28;20042;-47
2020/12/26 05:58:13;;;;;;;14.85;9.07;;;2.80;94.20;;;;;;4996664;28;20046;-49
2020/12/26 06:00:41;;;;;;;18.45;9.65;;;2.90;94.30;;;;;;5006081;28;20035;-49
2020/12/26 06:03:30;;;;;;;18.85;10.05;;;2.90;94.20;;;;;;4995081;28;20059;-49
2020/12/26 06:06:05;;;;;;;19.33;9.07;;;2.80;94.20;;;;;;5004233;28;20042;-47
2020/12/26 06:08:32;;;;;;;17.85;9.40;;;2.90;94.20;;;;;;4992797;28;20406;-49
2020/12/26 06:11:04;;;;;;;14.55;9.25;;;2.90;94.10;;;;;;4991502;28;20046;-47
2020/12/26 06:13:31;;;;;;;;;;;3.00;94.10;;;;;;4993225;28;20073;-48
2020/12/26 06:16:08;;;;;;;16.65;9.30;;;3.00;94.10;;;;;;4984058;28;19917;-50
2020/12/26 06:18:44;;;;;;;19.38;9.27;;;3.00;94.00;;;;;;4988718;28;20075;-48
2020/12/26 06:21:10;;;;;;;14.88;9.13;;;3.00;94.00;;;;;;4994389;28;20044;-47
2020/12/26 06:23:41;;;;;;;16.33;9.43;;;3.00;94.00;;;;;;5009296;28;20049;-49
2020/12/26 06:26:09;;;;;;;14.85;9.25;;;3.00;94.30;;;;;;4986441;28;20174;-49
2020/12/26 06:28:36;;;;;;;16.30;8.95;;;3.20;93.90;;;;;;4990651;28;20046;-51
2020/12/26 06:31:06;;;;;;;17.90;10.93;;;3.10;93.80;;;;;;4995667;28;20079;-47
2020/12/26 06:33:48;;;;;;;16.35;9.25;;;3.10;93.90;;;;;;4994074;28;20050;-48
2020/12/26 06:36:14;;;;;;;14.63;9.65;;;3.10;93.90;;;;;;4984968;28;20050;-47
2020/12/26 06:38:41;;;;;;;16.40;10.23;;;3.20;93.90;;;;;;4979339;28;20038;-48
2020/12/26 06:41:25;;;;;;;20.98;9.85;;;3.30;93.80;;;;;;4992509;28;20042;-48
2020/12/26 06:43:56;;;;;;;16.67;9.90;;;3.30;93.80;;;;;;5008092;28;20514;-51
2020/12/26 06:46:24;;;;;;;16.25;9.52;;;3.30;93.80;;;;;;4993701;28;20400;-50
2020/12/26 06:48:55;;;;;;;17.73;10.43;;;3.30;93.80;;;;;;4983025;28;20043;-50
2020/12/26 06:51:32;;;;;;;16.95;10.00;;;3.30;93.90;;;;;;4982251;28;20085;-48
2020/12/26 06:53:59;;;;;;;17.13;9.57;;;3.30;93.80;;;;;;4986665;28;20050;-47
2020/12/26 06:56:34;;;;;;;15.48;10.40;;;3.40;93.90;;;;;;4980479;28;20038;-50
2020/12/26 06:59:11;;;;;;;17.63;10.45;;;3.30;93.80;;;;;;4986053;28;20042;-48
2020/12/26 07:01:46;;;;;;;18.38;10.55;;;3.40;93.80;;;;;;4982448;28;20046;-50
2020/12/26 07:04:15;;;;;;;18.38;10.68;;;3.40;93.80;;;;;;4986950;28;20042;-47
2020/12/26 07:06:50;;;;;;;18.60;9.98;;;3.40;93.80;;;;;;4985423;28;20039;-49
2020/12/26 07:09:18;;;;;;;19.05;10.88;;;3.40;93.80;;;;;;4987203;28;20050;-48
2020/12/26 07:11:51;;;;;;;17.83;10.52;;;3.40;93.80;;;;;;4981595;28;20043;-50
2020/12/26 07:14:41;;;;;;;16.55;10.98;;;3.40;93.80;;;;;;4986075;28;20046;-48
2020/12/26 07:17:15;;;;;;;18.05;10.82;;;3.40;93.80;;;;;;4990293;28;20415;-50
2020/12/26 07:19:43;;;;;;;15.55;10.57;;;3.40;93.80;;;;;;4990427;28;20043;-49
2020/12/26 07:22:16;;;;;;;20.55;10.77;;;3.40;93.80;;;;;;4991229;28;20070;-49
2020/12/26 07:24:48;;;;;;;16.58;10.25;;;3.40;93.80;;;;;;4992076;28;20468;-49
2020/12/26 07:27:18;;;;;;;17.92;10.57;;;3.50;93.90;;;;;;4991033;28;20042;-49
2020/12/26 07:30:13;;;;;;;18.45;10.32;;;3.50;93.80;;;;;;4981921;28;20155;-51
2020/12/26 07:32:41;;;;;;;16.50;10.57;;;3.50;93.90;;;;;;4987111;28;20046;-52
2020/12/26 07:35:13;;;;;;;37.10;10.65;;;3.50;93.90;;;;;;4991438;28;20043;-50
2020/12/26 07:37:39;;;;;;;15.82;9.80;;;3.50;93.90;;;;;;4991196;28;20536;-50
2020/12/26 07:40:06;;;;;;;21.55;10.63;;;3.50;93.90;;;;;;4992081;28;20122;-50
2020/12/26 07:42:34;;;;;;;15.43;9.13;;;3.60;94.00;;;;;;4990436;28;20039;-49
2020/12/26 07:45:12;;;;;;;18.23;8.57;;;3.60;94.00;;;;;;4991286;28;20039;-53
2020/12/26 07:47:45;;;;;;;15.18;9.13;;;3.60;94.00;;;;;;4980681;28;20518;-49
2020/12/26 07:50:14;;;;;;;14.35;7.97;;;3.60;94.00;;;;;;4989392;28;20523;-47
2020/12/26 07:52:46;;;;;;;18.38;8.23;;;3.70;94.00;;;;;;4986623;28;20048;-50
2020/12/26 07:55:13;;;;;;;16.85;8.05;;;3.70;93.90;;;;;;5003801;28;20042;-47
2020/12/26 07:57:40;;;;;;;15.23;8.35;;;3.70;93.90;;;;;;4992698;28;20106;-50
2020/12/26 08:00:17;;;;;;;13.57;7.55;;;3.80;93.90;;;;;;4984761;28;20038;-47
2020/12/26 08:02:55;;;;;;;14.93;8.50;;;3.80;93.80;;;;;;4986153;28;20046;-48
2020/12/26 08:05:26;;;;;;;16.33;8.10;;;3.80;93.80;;;;;;4987093;28;20300;-48
2020/12/26 08:07:53;;;;;;;15.80;7.93;;;3.80;93.90;;;;;;4985176;28;20085;-47
2020/12/26 08:10:20;;;;;;;14.32;8.70;;;3.80;93.80;;;;;;4984383;28;20135;-50
2020/12/26 08:12:58;;;;;;;14.77;8.05;;;3.80;93.80;;;;;;4987522;28;20043;-48
2020/12/26 08:15:28;;;;;;;16.23;7.97;;;3.80;93.80;;;;;;4985185;28;21707;-49
2020/12/26 08:18:00;;;;;;;17.58;7.93;;;3.80;93.80;;;;;;4991196;28;20073;-50
2020/12/26 08:20:28;;;;;;;14.37;7.73;;;3.80;93.80;;;;;;4994117;28;20038;-48
2020/12/26 08:22:54;;;;;;;15.40;7.85;;;3.90;93.90;;;;;;4983649;28;20072;-49
2020/12/26 08:25:23;;;;;;;15.13;6.80;;;3.90;93.80;;;;;;4989151;28;20069;-49
2020/12/26 08:27:49;;;;;;;14.75;7.63;;;3.80;93.80;;;;;;4974640;28;20073;-51
2020/12/26 08:30:35;;;;;;;13.05;7.40;;;3.80;93.80;;;;;;4989046;28;20081;-48
2020/12/26 08:33:13;;;;;;;13.57;6.80;;;3.90;93.80;;;;;;4994058;28;20521;-48
2020/12/26 08:35:53;;;;;;;15.27;7.15;;;3.90;93.80;;;;;;4978796;28;20442;-47
2020/12/26 08:38:22;;;;;;;16.73;7.57;;;3.90;93.80;;;;;;4982711;28;20070;-47
2020/12/26 08:40:55;;;;;;;12.52;5.93;;;3.90;93.90;;;;;;4991320;28;20457;-49
2020/12/26 08:43:21;;;;;;;12.85;5.97;;;3.90;93.90;;;;;;4994098;28;20046;-49
2020/12/26 08:45:47;;;;;;;12.52;5.57;;;4.00;93.90;;;;;;4992587;28;20120;-48
2020/12/26 08:48:22;;;;;;;10.38;5.40;;;4.00;93.90;;;;;;4993720;28;20125;-49
2020/12/26 08:51:00;;;;;;;13.98;5.43;;;4.00;93.80;;;;;;4986341;28;20046;-48
2020/12/26 08:53:26;;;;;;;10.10;4.88;;;4.10;93.80;;;;;;5003831;28;20043;-48
2020/12/26 08:55:55;;;;;;;13.82;5.07;;;4.10;93.80;;;;;;4980353;28;20521;-48
2020/12/26 08:58:25;;;;;;;9.02;4.68;;;4.20;93.70;;;;;;4983930;28;20043;-49
2020/12/26 09:00:53;;;;;;;8.90;4.35;;;4.30;93.60;;;;;;4987345;28;20120;-50
2020/12/26 09:03:29;;;;;;;8.73;4.40;;;4.20;93.60;;;;;;4993148;28;20042;-48
2020/12/26 09:05:57;;;;;;;10.27;4.25;;;4.20;93.60;;;;;;4988437;28;20038;-48
2020/12/26 09:08:36;;;;;;;11.00;4.43;;;4.30;93.50;;;;;;4983548;28;20042;-48
2020/12/26 09:11:10;;;;;;;9.90;4.10;;;4.30;93.50;;;;;;4987387;28;20038;-48
2020/12/26 09:13:43;;;;;;;8.30;4.35;;;4.30;93.40;;;;;;4984816;28;20463;-51
2020/12/26 09:16:14;;;;;;;11.18;4.00;;;4.30;93.40;;;;;;4980542;28;20050;-50
2020/12/26 09:18:48;;;;;;;9.82;4.00;;;4.30;93.50;;;;;;4989169;28;20062;-50
2020/12/26 09:21:28;;;;;;;11.23;4.00;;;4.30;93.30;;;;;;4994176;28;20050;-48
2020/12/26 09:23:56;;;;;;;10.18;4.07;;;4.30;93.30;;;;;;4993160;28;20426;-48
2020/12/26 09:26:25;;;;;;;8.30;4.07;;;4.30;93.40;;;;;;4993645;28;20039;-49
2020/12/26 09:28:55;;;;;;;7.72;3.42;;;4.30;93.40;;;;;;4989364;28;20424;-47
2020/12/26 09:31:23;;;;;;;9.13;4.10;;;4.40;93.40;;;;;;4983060;28;20145;-49
2020/12/26 09:33:50;;;;;;;10.68;3.63;;;4.40;93.30;;;;;;4992223;28;20038;-47
2020/12/26 09:36:18;;;;;;;7.15;3.90;;;4.50;93.30;;;;;;4983565;28;20076;-48
2020/12/26 09:38:45;;;;;;;10.23;4.22;;;4.50;93.30;;;;;;4978298;28;20053;-49
2020/12/26 09:41:18;;;;;;;8.40;4.10;;;4.50;93.10;;;;;;5006771;28;20038;-50
2020/12/26 09:43:46;;;;;;;9.10;4.28;;;4.60;93.10;;;;;;4982917;28;20047;-52
2020/12/26 09:46:13;;;;;;;7.53;4.13;;;4.50;93.10;;;;;;4984206;28;20041;-48
2020/12/26 09:48:39;;;;;;;12.35;3.90;;;4.60;93.00;;;;;;4980578;28;20053;-50
2020/12/26 09:51:10;;;;;;;9.90;4.18;;;4.60;93.10;;;;;;4985138;28;20418;-50
2020/12/26 09:53:36;;;;;;;12.85;4.82;;;4.60;92.90;;;;;;4985989;28;20050;-49
2020/12/26 09:56:05;;;;;;;14.02;4.80;;;4.70;92.80;;;;;;4989218;28;20046;-48
2020/12/26 09:58:31;;;;;;;7.65;4.57;;;4.70;92.80;;;;;;4988160;28;20046;-50
2020/12/26 10:00:56;;;;;;;8.77;4.50;;;4.60;92.80;;;;;;4981891;28;20059;-47
2020/12/26 10:03:22;;;;;;;12.23;4.35;;;4.70;92.70;;;;;;4991271;28;20050;-47
2020/12/26 10:05:47;;;;;;;13.18;5.55;;;4.70;92.70;;;;;;4993281;28;20098;-48
2020/12/26 10:08:13;;;;;;;11.07;5.40;;;4.70;92.80;;;;;;4992070;28;20038;-48
2020/12/26 10:10:38;;;;;;;11.07;4.97;;;4.70;92.80;;;;;;4985789;28;20039;-48
2020/12/26 10:13:04;;;;;;;9.45;5.22;;;4.70;92.70;;;;;;4974494;28;20491;-48
2020/12/26 10:15:30;;;;;;;11.20;5.30;;;4.70;92.60;;;;;;4974000;28;20430;-48
2020/12/26 10:17:55;;;;;;;9.02;4.63;;;4.70;92.50;;;;;;4975678;28;20047;-48
2020/12/26 10:20:21;;;;;;;14.02;5.45;;;4.70;92.40;;;;;;4990714;28;20069;-49
2020/12/26 10:22:48;;;;;;;10.27;5.75;;;4.70;92.40;;;;;;4984732;28;20501;-48
2020/12/26 10:25:15;;;;;;;12.32;5.78;;;4.70;92.50;;;;;;4989459;28;20054;-48
2020/12/26 10:27:41;;;;;;;10.88;6.32;;;4.70;92.50;;;;;;4974979;28;20113;-48
2020/12/26 10:30:07;;;;;;;14.00;6.65;;;4.70;92.60;;;;;;4988003;28;20141;-47
2020/12/26 10:32:33;;;;;;;14.63;6.88;;;4.60;92.60;;;;;;4976695;28;20050;-47
2020/12/26 10:34:59;;;;;;;13.55;7.30;;;4.60;92.70;;;;;;4991721;28;20057;-48
2020/12/26 10:37:25;;;;;;;10.10;6.95;;;4.70;92.60;;;;;;4986893;28;20113;-48
2020/12/26 10:39:51;;;;;;;12.55;7.07;;;4.70;92.60;;;;;;4977664;28;20085;-48
2020/12/26 10:42:17;;;;;;;12.88;7.07;;;4.70;92.80;;;;;;4989354;28;20065;-48
2020/12/26 10:44:43;;;;;;;11.98;7.32;;;4.70;92.80;;;;;;4979691;28;20039;-50
2020/12/26 10:47:09;;;;;;;11.98;7.78;;;4.80;92.60;;;;;;4991696;28;20142;-49
2020/12/26 10:49:35;;;;;;;14.98;7.53;;;4.80;92.70;;;;;;4979424;28;20073;-49
2020/12/26 10:52:00;;;;;;;14.65;7.78;;;4.90;92.60;;;;;;4975710;28;20038;-51
2020/12/26 10:54:26;;;;;;;11.77;7.20;;;4.90;92.60;;;;;;4993761;28;20057;-51
2020/12/26 10:56:52;;;;;;;14.20;8.13;;;4.90;92.50;;;;;;4994703;28;20042;-48
2020/12/26 10:59:17;;;;;;;15.90;8.35;;;4.90;92.60;;;;;;4993797;28;20046;-50
2020/12/26 11:01:43;;;;;;;15.07;8.00;;;4.90;92.60;;;;;;4977992;28;20051;-49
2020/12/26 11:04:09;;;;;;;12.75;8.80;;;4.90;92.50;;;;;;4978858;28;20388;-54
2020/12/26 11:06:36;;;;;;;14.98;8.05;;;4.90;92.50;;;;;;4979755;28;20101;-49
2020/12/26 11:09:02;;;;;;;15.07;8.98;;;4.90;92.50;;;;;;4976002;28;20443;-49
2020/12/26 11:11:27;;;;;;;15.90;9.18;;;4.90;92.50;;;;;;4982375;28;20517;-50
2020/12/26 11:13:53;;;;;;;14.77;8.27;;;4.90;92.50;;;;;;4987017;28;20145;-53
2020/12/26 11:16:18;;;;;;;16.10;10.32;;;5.00;92.50;;;;;;4992673;28;20422;-49
2020/12/26 11:18:45;;;;;;;15.27;8.95;;;5.00;92.70;;;;;;4978421;28;20050;-48
2020/12/26 11:21:18;;;;;;;11.93;8.57;;;5.10;92.60;;;;;;4982906;28;20034;-48
2020/12/26 11:23:44;;;;;;;20.52;10.00;;;5.20;92.40;;;;;;4982571;28;20055;-49
2020/12/26 11:26:13;;;;;;;16.65;8.43;;;5.30;92.20;;;;;;4983390;28;20076;-52
2020/12/26 11:28:40;;;;;;;11.75;7.80;;;5.30;92.10;;;;;;4998213;28;20038;-52
2020/12/26 11:31:07;;;;;;;13.07;8.73;;;5.30;92.00;;;;;;4990306;28;20034;-49
2020/12/26 11:33:34;;;;;;;14.10;7.97;;;5.30;91.80;;;;;;4985583;28;20037;-53
2020/12/26 11:36:00;;;;;;;13.40;8.38;;;5.30;91.90;;;;;;4979669;28;20122;-53
2020/12/26 11:38:25;;;;;;;13.43;7.85;;;5.30;91.90;;;;;;4982071;28;20515;-49
2020/12/26 11:40:51;;;;;;;12.05;7.75;;;5.30;92.00;;;;;;4978901;28;20051;-49
2020/12/26 11:43:17;;;;;;;14.68;8.35;;;5.30;91.90;;;;;;4982721;28;20051;-49
2020/12/26 11:45:44;;;;;;;11.15;7.72;;;5.40;91.90;;;;;;4995807;28;20043;-51
2020/12/26 11:48:10;;;;;;;12.60;7.72;;;5.40;91.60;;;;;;4983740;28;20155;-50
2020/12/26 11:50:36;;;;;;;15.80;7.20;;;5.30;91.70;;;;;;4981964;28;20039;-50
2020/12/26 11:53:03;;;;;;;11.88;7.00;;;5.40;91.60;;;;;;4991555;28;20046;-49
2020/12/26 11:55:30;;;;;;;14.07;7.63;;;5.40;91.60;;;;;;4998652;28;20046;-48
2020/12/26 11:57:57;;;;;;;14.68;8.05;;;5.40;91.60;;;;;;5004523;28;20205;-49
2020/12/26 12:00:25;;;;;;;11.80;7.38;;;5.40;91.60;;;;;;4997737;28;20492;-49
2020/12/26 12:02:50;;;;;;;11.65;6.78;;;5.40;91.80;;;;;;4986770;28;20049;-53
2020/12/26 12:05:16;;;;;;;10.70;6.22;;;5.40;91.50;;;;;;4992855;28;20046;-49
2020/12/26 12:07:41;;;;;;;9.80;5.53;;;5.40;91.50;;;;;;4981158;28;20089;-51
2020/12/26 12:10:07;;;;;;;12.85;6.32;;;5.40;91.40;;;;;;4980161;28;20042;-48
2020/12/26 12:12:33;;;;;;;12.38;6.68;;;5.40;91.50;;;;;;4977907;28;20077;-48
2020/12/26 12:14:59;;;;;;;11.32;6.38;;;5.40;91.30;;;;;;4985282;28;20038;-51
2020/12/26 12:17:25;;;;;;;12.40;6.25;;;5.40;91.30;;;;;;4986294;28;20117;-48
2020/12/26 12:19:52;;;;;;;14.00;5.75;;;5.40;91.50;;;;;;4983472;28;20126;-50
2020/12/26 12:22:17;;;;;;;11.93;6.22;;;5.40;91.40;;;;;;4977990;28;20039;-48
2020/12/26 12:24:43;;;;;;;11.02;6.03;;;5.50;91.00;;;;;;4978267;28;20058;-48
2020/12/26 12:27:10;;;;;;;11.30;5.82;;;5.40;91.20;;;;;;4990910;28;20454;-52
2020/12/26 12:29:37;;;;;;;12.75;5.43;;;5.50;91.20;;;;;;4987773;28;20046;-48
2020/12/26 12:32:05;;;;;;;8.90;5.65;;;5.50;91.20;;;;;;4979370;28;20133;-51
2020/12/26 12:34:31;;;;;;;12.30;6.03;;;5.50;91.20;;;;;;4991874;28;20054;-50
2020/12/26 12:36:56;;;;;;;9.13;5.30;;;5.50;91.20;;;;;;4981581;28;20038;-50
2020/12/26 12:39:22;;;;;;;11.57;5.18;;;5.50;91.00;;;;;;4986147;28;20034;-50
2020/12/26 12:41:52;;;;;;;11.95;5.32;;;5.50;91.10;;;;;;4980321;28;20055;-49
2020/12/26 12:44:18;;;;;;;14.57;5.90;;;5.50;91.20;;;;;;4976654;28;20452;-48
2020/12/26 12:46:43;;;;;;;11.35;5.88;;;5.50;91.40;;;;;;4988828;28;20073;-49
2020/12/26 12:49:09;;;;;;;18.25;5.90;;;5.50;91.30;;;;;;4979361;28;20094;-48
2020/12/26 12:51:34;;;;;;;9.23;5.05;;;5.50;91.30;;;;;;4976260;28;20098;-50
2020/12/26 12:54:00;;;;;;;11.68;5.40;;;5.50;91.30;;;;;;4993590;28;20045;-49